sensor_id;sensor_type;location;lat;lon;timestamp;P1;durP1;ratioP1;P2;durP2;ratioP2
4519;SDS011;2272;49.226;8.108;2024-02-21T00:00:52;7.90;;;5.17;;
4519;SDS011;2272;49.226;8.108;2024-02-21T00:03:18;23.67;;;8.17;;
4519;SDS011;2272;49.226;8.108;2024-02-21T00:05:46;12.00;;;5.57;;
4519;SDS011;2272;49.226;8.108;2024-02-21T00:08:13;20.47;;;5.90;;
4519;SDS011;2272;49.226;8.108;2024-02-21T00:10:39;11.50;;;5.50;;
4519;SDS011;2272;49.226;8.108;2024-02-21T00:13:06;34.43;;;7.17;;
4519;SDS011;2272;49.226;8.108;2024-02-21T00:15:34;12.47;;;5.97;;
4519;SDS011;2272;49.226;8.108;2024-02-21T00:18:01;22.07;;;6.10;;
4519;SDS011;2272;49.226;8.108;2024-02-21T00:20:28;12.93;;;5.90;;
4519;SDS011;2272;49.226;8.108;2024-02-21T00:22:55;5.53;;;4.90;;
4519;SDS011;2272;49.226;8.108;2024-02-21T00:25:22;10.37;;;5.73;;
4519;SDS011;2272;49.226;8.108;2024-02-21T00:27:49;21.57;;;5.80;;
4519;SDS011;2272;49.226;8.108;2024-02-21T00:30:15;21.17;;;6.30;;
4519;SDS011;2272;49.226;8.108;2024-02-21T00:32:44;8.43;;;5.30;;
4519;SDS011;2272;49.226;8.108;2024-02-21T00:35:10;14.40;;;5.90;;
4519;SDS011;2272;49.226;8.108;2024-02-21T00:37:37;10.13;;;5.90;;
4519;SDS011;2272;49.226;8.108;2024-02-21T00:40:04;15.73;;;5.10;;
4519;SDS011;2272;49.226;8.108;2024-02-21T00:42:32;13.13;;;5.77;;
4519;SDS011;2272;49.226;8.108;2024-02-21T00:44:59;11.93;;;6.27;;
4519;SDS011;2272;49.226;8.108;2024-02-21T00:47:25;15.53;;;5.80;;
4519;SDS011;2272;49.226;8.108;2024-02-21T00:49:54;16.23;;;6.23;;
4519;SDS011;2272;49.226;8.108;2024-02-21T00:52:21;16.90;;;6.50;;
4519;SDS011;2272;49.226;8.108;2024-02-21T00:54:47;16.60;;;5.93;;
4519;SDS011;2272;49.226;8.108;2024-02-21T00:57:14;17.03;;;5.73;;
4519;SDS011;2272;49.226;8.108;2024-02-21T00:59:41;13.40;;;5.77;;
4519;SDS011;2272;49.226;8.108;2024-02-21T01:02:08;11.73;;;5.40;;
4519;SDS011;2272;49.226;8.108;2024-02-21T01:04:35;15.23;;;4.97;;
4519;SDS011;2272;49.226;8.108;2024-02-21T01:07:03;13.80;;;5.93;;
4519;SDS011;2272;49.226;8.108;2024-02-21T01:09:30;24.73;;;5.53;;
4519;SDS011;2272;49.226;8.108;2024-02-21T01:11:56;25.57;;;5.07;;
4519;SDS011;2272;49.226;8.108;2024-02-21T01:14:23;12.83;;;5.87;;
4519;SDS011;2272;49.226;8.108;2024-02-21T01:16:50;28.10;;;5.53;;
4519;SDS011;2272;49.226;8.108;2024-02-21T01:19:16;7.93;;;4.80;;
4519;SDS011;2272;49.226;8.108;2024-02-21T01:21:43;16.73;;;5.97;;
4519;SDS011;2272;49.226;8.108;2024-02-21T01:24:11;8.53;;;4.63;;
4519;SDS011;2272;49.226;8.108;2024-02-21T01:26:40;21.00;;;5.90;;
4519;SDS011;2272;49.226;8.108;2024-02-21T01:29:07;14.87;;;5.47;;
4519;SDS011;2272;49.226;8.108;2024-02-21T01:31:33;18.70;;;5.00;;
4519;SDS011;2272;49.226;8.108;2024-02-21T01:34:00;13.50;;;5.43;;
4519;SDS011;2272;49.226;8.108;2024-02-21T01:36:27;10.70;;;4.40;;
4519;SDS011;2272;49.226;8.108;2024-02-21T01:38:53;12.63;;;5.40;;
4519;SDS011;2272;49.226;8.108;2024-02-21T01:41:21;10.00;;;4.50;;
4519;SDS011;2272;49.226;8.108;2024-02-21T01:43:48;13.20;;;4.70;;
4519;SDS011;2272;49.226;8.108;2024-02-21T01:46:15;13.40;;;4.43;;
4519;SDS011;2272;49.226;8.108;2024-02-21T01:48:41;17.73;;;5.70;;
4519;SDS011;2272;49.226;8.108;2024-02-21T01:51:10;14.03;;;4.97;;
4519;SDS011;2272;49.226;8.108;2024-02-21T01:53:38;16.97;;;4.73;;
4519;SDS011;2272;49.226;8.108;2024-02-21T01:56:09;26.87;;;5.60;;
4519;SDS011;2272;49.226;8.108;2024-02-21T01:58:38;15.00;;;3.90;;
4519;SDS011;2272;49.226;8.108;2024-02-21T02:01:06;12.00;;;5.07;;
4519;SDS011;2272;49.226;8.108;2024-02-21T02:03:33;13.33;;;4.80;;
4519;SDS011;2272;49.226;8.108;2024-02-21T02:06:00;14.17;;;4.67;;
4519;SDS011;2272;49.226;8.108;2024-02-21T02:08:27;14.93;;;4.60;;
4519;SDS011;2272;49.226;8.108;2024-02-21T02:10:53;12.80;;;4.57;;
4519;SDS011;2272;49.226;8.108;2024-02-21T02:13:20;11.43;;;5.13;;
4519;SDS011;2272;49.226;8.108;2024-02-21T02:15:48;16.83;;;5.03;;
4519;SDS011;2272;49.226;8.108;2024-02-21T02:18:16;21.43;;;5.07;;
4519;SDS011;2272;49.226;8.108;2024-02-21T02:20:44;13.30;;;4.43;;
4519;SDS011;2272;49.226;8.108;2024-02-21T02:25:45;7.17;;;4.03;;
4519;SDS011;2272;49.226;8.108;2024-02-21T02:28:14;15.27;;;4.90;;
4519;SDS011;2272;49.226;8.108;2024-02-21T02:30:41;15.50;;;4.20;;
4519;SDS011;2272;49.226;8.108;2024-02-21T02:33:08;13.00;;;4.80;;
4519;SDS011;2272;49.226;8.108;2024-02-21T02:35:34;17.93;;;5.13;;
4519;SDS011;2272;49.226;8.108;2024-02-21T02:38:01;13.50;;;4.60;;
4519;SDS011;2272;49.226;8.108;2024-02-21T02:40:30;11.83;;;4.33;;
4519;SDS011;2272;49.226;8.108;2024-02-21T02:42:57;9.20;;;4.60;;
4519;SDS011;2272;49.226;8.108;2024-02-21T02:45:23;16.47;;;4.90;;
4519;SDS011;2272;49.226;8.108;2024-02-21T02:47:51;12.83;;;4.40;;
4519;SDS011;2272;49.226;8.108;2024-02-21T02:50:19;9.53;;;4.10;;
4519;SDS011;2272;49.226;8.108;2024-02-21T02:52:46;10.23;;;4.90;;
4519;SDS011;2272;49.226;8.108;2024-02-21T02:55:13;9.73;;;4.63;;
4519;SDS011;2272;49.226;8.108;2024-02-21T02:57:41;12.80;;;4.93;;
4519;SDS011;2272;49.226;8.108;2024-02-21T03:00:09;15.70;;;5.30;;
4519;SDS011;2272;49.226;8.108;2024-02-21T03:02:37;8.00;;;4.27;;
4519;SDS011;2272;49.226;8.108;2024-02-21T03:05:11;13.50;;;4.87;;
4519;SDS011;2272;49.226;8.108;2024-02-21T03:07:38;7.13;;;4.00;;
4519;SDS011;2272;49.226;8.108;2024-02-21T03:10:05;16.33;;;4.97;;
4519;SDS011;2272;49.226;8.108;2024-02-21T03:12:33;8.17;;;4.07;;
4519;SDS011;2272;49.226;8.108;2024-02-21T03:15:01;11.67;;;4.50;;
4519;SDS011;2272;49.226;8.108;2024-02-21T03:17:27;6.77;;;4.13;;
4519;SDS011;2272;49.226;8.108;2024-02-21T03:19:54;9.17;;;4.23;;
4519;SDS011;2272;49.226;8.108;2024-02-21T03:22:21;11.33;;;4.10;;
4519;SDS011;2272;49.226;8.108;2024-02-21T03:24:48;8.70;;;4.00;;
4519;SDS011;2272;49.226;8.108;2024-02-21T03:27:15;9.47;;;3.90;;
4519;SDS011;2272;49.226;8.108;2024-02-21T03:29:42;6.63;;;3.93;;
4519;SDS011;2272;49.226;8.108;2024-02-21T03:32:10;11.10;;;4.20;;
4519;SDS011;2272;49.226;8.108;2024-02-21T03:34:37;15.77;;;4.97;;
4519;SDS011;2272;49.226;8.108;2024-02-21T03:37:03;14.20;;;4.77;;
4519;SDS011;2272;49.226;8.108;2024-02-21T03:39:31;14.87;;;5.10;;
4519;SDS011;2272;49.226;8.108;2024-02-21T03:41:57;12.40;;;4.73;;
4519;SDS011;2272;49.226;8.108;2024-02-21T03:44:29;12.20;;;4.90;;
4519;SDS011;2272;49.226;8.108;2024-02-21T03:46:56;17.30;;;4.57;;
4519;SDS011;2272;49.226;8.108;2024-02-21T03:49:24;20.00;;;5.37;;
4519;SDS011;2272;49.226;8.108;2024-02-21T03:51:50;8.10;;;4.10;;
4519;SDS011;2272;49.226;8.108;2024-02-21T03:54:17;12.23;;;4.60;;
4519;SDS011;2272;49.226;8.108;2024-02-21T03:56:44;14.40;;;3.83;;
4519;SDS011;2272;49.226;8.108;2024-02-21T03:59:13;17.33;;;4.60;;
4519;SDS011;2272;49.226;8.108;2024-02-21T04:01:40;16.13;;;4.83;;
4519;SDS011;2272;49.226;8.108;2024-02-21T04:04:07;16.90;;;4.77;;
4519;SDS011;2272;49.226;8.108;2024-02-21T04:06:35;14.43;;;4.50;;
4519;SDS011;2272;49.226;8.108;2024-02-21T04:09:02;18.00;;;5.13;;
4519;SDS011;2272;49.226;8.108;2024-02-21T04:11:28;11.57;;;3.80;;
4519;SDS011;2272;49.226;8.108;2024-02-21T04:13:55;6.27;;;3.77;;
4519;SDS011;2272;49.226;8.108;2024-02-21T04:16:22;8.03;;;4.30;;
4519;SDS011;2272;49.226;8.108;2024-02-21T04:18:48;7.10;;;3.80;;
4519;SDS011;2272;49.226;8.108;2024-02-21T04:21:15;6.60;;;3.83;;
4519;SDS011;2272;49.226;8.108;2024-02-21T04:23:44;8.00;;;3.70;;
4519;SDS011;2272;49.226;8.108;2024-02-21T04:26:11;11.00;;;4.37;;
4519;SDS011;2272;49.226;8.108;2024-02-21T04:28:38;4.50;;;2.93;;
4519;SDS011;2272;49.226;8.108;2024-02-21T04:31:09;4.03;;;3.63;;
4519;SDS011;2272;49.226;8.108;2024-02-21T04:33:36;13.63;;;5.07;;
4519;SDS011;2272;49.226;8.108;2024-02-21T04:36:03;8.13;;;4.43;;
4519;SDS011;2272;49.226;8.108;2024-02-21T04:38:30;12.23;;;5.10;;
4519;SDS011;2272;49.226;8.108;2024-02-21T04:40:58;9.93;;;4.90;;
4519;SDS011;2272;49.226;8.108;2024-02-21T04:43:25;4.70;;;3.77;;
4519;SDS011;2272;49.226;8.108;2024-02-21T04:45:51;8.50;;;5.23;;
4519;SDS011;2272;49.226;8.108;2024-02-21T04:48:19;17.27;;;6.10;;
4519;SDS011;2272;49.226;8.108;2024-02-21T04:50:45;6.73;;;4.93;;
4519;SDS011;2272;49.226;8.108;2024-02-21T04:53:12;17.30;;;6.70;;
4519;SDS011;2272;49.226;8.108;2024-02-21T04:55:39;10.47;;;4.77;;
4519;SDS011;2272;49.226;8.108;2024-02-21T04:58:07;19.40;;;5.20;;
4519;SDS011;2272;49.226;8.108;2024-02-21T05:00:34;20.33;;;5.73;;
4519;SDS011;2272;49.226;8.108;2024-02-21T05:03:01;16.77;;;6.97;;
4519;SDS011;2272;49.226;8.108;2024-02-21T05:05:27;27.03;;;5.63;;
4519;SDS011;2272;49.226;8.108;2024-02-21T05:07:54;13.73;;;6.50;;
4519;SDS011;2272;49.226;8.108;2024-02-21T05:10:21;21.17;;;6.67;;
4519;SDS011;2272;49.226;8.108;2024-02-21T05:12:48;19.90;;;6.27;;
4519;SDS011;2272;49.226;8.108;2024-02-21T05:15:16;14.07;;;6.20;;
4519;SDS011;2272;49.226;8.108;2024-02-21T05:17:42;22.30;;;6.87;;
4519;SDS011;2272;49.226;8.108;2024-02-21T05:20:09;17.00;;;7.10;;
4519;SDS011;2272;49.226;8.108;2024-02-21T05:22:36;16.60;;;7.70;;
4519;SDS011;2272;49.226;8.108;2024-02-21T05:25:03;14.17;;;6.40;;
4519;SDS011;2272;49.226;8.108;2024-02-21T05:27:31;20.40;;;6.23;;
4519;SDS011;2272;49.226;8.108;2024-02-21T05:29:57;12.23;;;7.03;;
4519;SDS011;2272;49.226;8.108;2024-02-21T05:32:26;16.10;;;5.37;;
4519;SDS011;2272;49.226;8.108;2024-02-21T05:34:53;6.37;;;5.10;;
4519;SDS011;2272;49.226;8.108;2024-02-21T05:37:19;17.87;;;7.63;;
4519;SDS011;2272;49.226;8.108;2024-02-21T05:39:46;14.17;;;6.93;;
4519;SDS011;2272;49.226;8.108;2024-02-21T05:42:13;19.30;;;7.07;;
4519;SDS011;2272;49.226;8.108;2024-02-21T05:44:40;18.60;;;7.30;;
4519;SDS011;2272;49.226;8.108;2024-02-21T05:47:07;17.53;;;7.20;;
4519;SDS011;2272;49.226;8.108;2024-02-21T05:49:36;25.20;;;8.70;;
4519;SDS011;2272;49.226;8.108;2024-02-21T05:52:03;12.90;;;6.87;;
4519;SDS011;2272;49.226;8.108;2024-02-21T05:54:31;14.03;;;6.07;;
4519;SDS011;2272;49.226;8.108;2024-02-21T05:57:05;6.33;;;5.70;;
4519;SDS011;2272;49.226;8.108;2024-02-21T05:59:34;12.60;;;5.60;;
4519;SDS011;2272;49.226;8.108;2024-02-21T06:02:05;15.90;;;6.20;;
4519;SDS011;2272;49.226;8.108;2024-02-21T06:04:31;13.43;;;5.93;;
4519;SDS011;2272;49.226;8.108;2024-02-21T06:07:02;14.40;;;5.50;;
4519;SDS011;2272;49.226;8.108;2024-02-21T06:09:29;20.37;;;6.50;;
4519;SDS011;2272;49.226;8.108;2024-02-21T06:11:56;14.07;;;5.30;;
4519;SDS011;2272;49.226;8.108;2024-02-21T06:14:26;12.83;;;5.67;;
4519;SDS011;2272;49.226;8.108;2024-02-21T06:16:53;15.47;;;5.90;;
4519;SDS011;2272;49.226;8.108;2024-02-21T06:19:40;28.97;;;7.07;;
4519;SDS011;2272;49.226;8.108;2024-02-21T06:22:09;21.60;;;8.10;;
4519;SDS011;2272;49.226;8.108;2024-02-21T06:24:36;20.30;;;7.40;;
4519;SDS011;2272;49.226;8.108;2024-02-21T06:27:03;12.10;;;6.20;;
4519;SDS011;2272;49.226;8.108;2024-02-21T06:29:31;12.93;;;6.00;;
4519;SDS011;2272;49.226;8.108;2024-02-21T06:31:58;14.80;;;5.57;;
4519;SDS011;2272;49.226;8.108;2024-02-21T06:34:25;9.23;;;5.93;;
4519;SDS011;2272;49.226;8.108;2024-02-21T06:36:52;13.57;;;6.20;;
4519;SDS011;2272;49.226;8.108;2024-02-21T06:39:20;13.87;;;5.63;;
4519;SDS011;2272;49.226;8.108;2024-02-21T06:41:48;9.80;;;6.77;;
4519;SDS011;2272;49.226;8.108;2024-02-21T06:44:15;13.27;;;6.77;;
4519;SDS011;2272;49.226;8.108;2024-02-21T06:46:48;19.00;;;6.63;;
4519;SDS011;2272;49.226;8.108;2024-02-21T06:49:19;14.27;;;6.10;;
4519;SDS011;2272;49.226;8.108;2024-02-21T06:51:46;6.40;;;4.50;;
4519;SDS011;2272;49.226;8.108;2024-02-21T06:54:12;6.63;;;5.20;;
4519;SDS011;2272;49.226;8.108;2024-02-21T06:56:49;17.43;;;6.27;;
4519;SDS011;2272;49.226;8.108;2024-02-21T07:02:05;12.40;;;4.80;;
4519;SDS011;2272;49.226;8.108;2024-02-21T07:04:32;18.53;;;6.13;;
4519;SDS011;2272;49.226;8.108;2024-02-21T07:07:03;7.53;;;5.33;;
4519;SDS011;2272;49.226;8.108;2024-02-21T07:09:33;10.77;;;5.27;;
4519;SDS011;2272;49.226;8.108;2024-02-21T07:12:04;7.80;;;4.73;;
4519;SDS011;2272;49.226;8.108;2024-02-21T07:14:33;13.63;;;4.77;;
4519;SDS011;2272;49.226;8.108;2024-02-21T07:17:29;7.43;;;5.20;;
4519;SDS011;2272;49.226;8.108;2024-02-21T07:20:00;16.13;;;6.43;;
4519;SDS011;2272;49.226;8.108;2024-02-21T07:22:30;14.27;;;7.13;;
4519;SDS011;2272;49.226;8.108;2024-02-21T07:24:57;21.03;;;7.90;;
4519;SDS011;2272;49.226;8.108;2024-02-21T07:27:25;24.47;;;7.10;;
4519;SDS011;2272;49.226;8.108;2024-02-21T07:29:56;12.07;;;6.00;;
4519;SDS011;2272;49.226;8.108;2024-02-21T07:32:23;22.80;;;9.17;;
4519;SDS011;2272;49.226;8.108;2024-02-21T07:34:49;19.93;;;6.43;;
4519;SDS011;2272;49.226;8.108;2024-02-21T07:37:16;19.23;;;7.50;;
4519;SDS011;2272;49.226;8.108;2024-02-21T07:39:45;19.60;;;6.13;;
4519;SDS011;2272;49.226;8.108;2024-02-21T07:42:12;18.73;;;7.30;;
4519;SDS011;2272;49.226;8.108;2024-02-21T07:44:40;19.63;;;6.90;;
4519;SDS011;2272;49.226;8.108;2024-02-21T07:47:06;11.03;;;5.67;;
4519;SDS011;2272;49.226;8.108;2024-02-21T07:49:40;12.70;;;6.97;;
4519;SDS011;2272;49.226;8.108;2024-02-21T07:52:22;12.23;;;5.70;;
4519;SDS011;2272;49.226;8.108;2024-02-21T07:54:53;14.00;;;5.73;;
4519;SDS011;2272;49.226;8.108;2024-02-21T07:57:20;13.67;;;6.03;;
4519;SDS011;2272;49.226;8.108;2024-02-21T07:59:59;14.13;;;7.53;;
4519;SDS011;2272;49.226;8.108;2024-02-21T08:02:34;18.93;;;5.43;;
4519;SDS011;2272;49.226;8.108;2024-02-21T08:05:09;12.83;;;5.67;;
4519;SDS011;2272;49.226;8.108;2024-02-21T08:07:37;7.17;;;4.60;;
4519;SDS011;2272;49.226;8.108;2024-02-21T08:10:04;11.03;;;5.37;;
4519;SDS011;2272;49.226;8.108;2024-02-21T08:12:38;12.73;;;5.70;;
4519;SDS011;2272;49.226;8.108;2024-02-21T08:15:06;14.87;;;6.83;;
4519;SDS011;2272;49.226;8.108;2024-02-21T08:17:35;12.23;;;5.30;;
4519;SDS011;2272;49.226;8.108;2024-02-21T08:20:03;16.60;;;5.20;;
4519;SDS011;2272;49.226;8.108;2024-02-21T08:22:30;12.23;;;5.40;;
4519;SDS011;2272;49.226;8.108;2024-02-21T08:24:57;10.70;;;4.43;;
4519;SDS011;2272;49.226;8.108;2024-02-21T08:27:24;10.30;;;4.87;;
4519;SDS011;2272;49.226;8.108;2024-02-21T08:29:51;10.60;;;5.60;;
4519;SDS011;2272;49.226;8.108;2024-02-21T08:32:19;27.37;;;7.13;;
4519;SDS011;2272;49.226;8.108;2024-02-21T08:34:45;8.23;;;4.97;;
4519;SDS011;2272;49.226;8.108;2024-02-21T08:37:12;11.07;;;5.90;;
4519;SDS011;2272;49.226;8.108;2024-02-21T08:39:39;11.30;;;5.37;;
4519;SDS011;2272;49.226;8.108;2024-02-21T08:42:06;14.77;;;7.43;;
4519;SDS011;2272;49.226;8.108;2024-02-21T08:44:34;15.10;;;7.13;;
4519;SDS011;2272;49.226;8.108;2024-02-21T08:47:01;14.83;;;7.10;;
4519;SDS011;2272;49.226;8.108;2024-02-21T08:49:32;17.27;;;8.87;;
4519;SDS011;2272;49.226;8.108;2024-02-21T08:52:02;17.80;;;8.10;;
4519;SDS011;2272;49.226;8.108;2024-02-21T08:54:30;17.53;;;8.00;;
4519;SDS011;2272;49.226;8.108;2024-02-21T08:56:59;18.50;;;7.20;;
4519;SDS011;2272;49.226;8.108;2024-02-21T08:59:29;18.73;;;7.60;;
4519;SDS011;2272;49.226;8.108;2024-02-21T09:01:55;10.57;;;6.70;;
4519;SDS011;2272;49.226;8.108;2024-02-21T09:04:22;13.70;;;6.63;;
4519;SDS011;2272;49.226;8.108;2024-02-21T09:06:50;11.80;;;6.80;;
4519;SDS011;2272;49.226;8.108;2024-02-21T09:09:18;14.43;;;6.97;;
4519;SDS011;2272;49.226;8.108;2024-02-21T09:11:47;7.10;;;6.10;;
4519;SDS011;2272;49.226;8.108;2024-02-21T09:14:33;5.93;;;4.40;;
4519;SDS011;2272;49.226;8.108;2024-02-21T09:16:59;9.63;;;5.10;;
4519;SDS011;2272;49.226;8.108;2024-02-21T09:19:26;6.97;;;5.10;;
4519;SDS011;2272;49.226;8.108;2024-02-21T09:21:54;6.87;;;5.03;;
4519;SDS011;2272;49.226;8.108;2024-02-21T09:24:21;12.33;;;5.60;;
4519;SDS011;2272;49.226;8.108;2024-02-21T09:26:48;11.77;;;4.27;;
4519;SDS011;2272;49.226;8.108;2024-02-21T09:29:15;7.00;;;3.50;;
4519;SDS011;2272;49.226;8.108;2024-02-21T09:31:41;9.60;;;2.97;;
4519;SDS011;2272;49.226;8.108;2024-02-21T09:34:08;8.10;;;3.50;;
4519;SDS011;2272;49.226;8.108;2024-02-21T09:36:39;12.77;;;2.93;;
4519;SDS011;2272;49.226;8.108;2024-02-21T09:39:27;14.13;;;3.40;;
4519;SDS011;2272;49.226;8.108;2024-02-21T09:42:03;8.20;;;2.87;;
4519;SDS011;2272;49.226;8.108;2024-02-21T09:44:33;3.53;;;2.77;;
4519;SDS011;2272;49.226;8.108;2024-02-21T09:47:02;7.53;;;3.10;;
4519;SDS011;2272;49.226;8.108;2024-02-21T09:49:39;11.47;;;3.27;;
4519;SDS011;2272;49.226;8.108;2024-02-21T09:52:12;6.57;;;3.03;;
4519;SDS011;2272;49.226;8.108;2024-02-21T09:55:04;13.53;;;3.30;;
4519;SDS011;2272;49.226;8.108;2024-02-21T09:57:39;5.60;;;2.60;;
4519;SDS011;2272;49.226;8.108;2024-02-21T10:00:06;15.30;;;2.90;;
4519;SDS011;2272;49.226;8.108;2024-02-21T10:02:39;5.03;;;2.67;;
4519;SDS011;2272;49.226;8.108;2024-02-21T10:05:06;5.97;;;2.50;;
4519;SDS011;2272;49.226;8.108;2024-02-21T10:07:34;6.83;;;3.30;;
4519;SDS011;2272;49.226;8.108;2024-02-21T10:10:02;9.50;;;3.60;;
4519;SDS011;2272;49.226;8.108;2024-02-21T10:12:29;9.07;;;4.37;;
4519;SDS011;2272;49.226;8.108;2024-02-21T10:15:02;6.60;;;4.27;;
4519;SDS011;2272;49.226;8.108;2024-02-21T10:17:29;8.53;;;4.63;;
4519;SDS011;2272;49.226;8.108;2024-02-21T10:20:06;10.90;;;4.53;;
4519;SDS011;2272;49.226;8.108;2024-02-21T10:22:33;8.73;;;4.90;;
4519;SDS011;2272;49.226;8.108;2024-02-21T10:25:07;11.77;;;5.57;;
4519;SDS011;2272;49.226;8.108;2024-02-21T10:27:34;11.30;;;4.63;;
4519;SDS011;2272;49.226;8.108;2024-02-21T10:30:02;7.57;;;4.17;;
4519;SDS011;2272;49.226;8.108;2024-02-21T10:32:30;11.00;;;5.57;;
4519;SDS011;2272;49.226;8.108;2024-02-21T10:35:00;9.73;;;4.53;;
4519;SDS011;2272;49.226;8.108;2024-02-21T10:37:29;10.23;;;4.50;;
4519;SDS011;2272;49.226;8.108;2024-02-21T10:39:56;8.30;;;4.67;;
4519;SDS011;2272;49.226;8.108;2024-02-21T10:42:24;9.57;;;4.93;;
4519;SDS011;2272;49.226;8.108;2024-02-21T10:44:55;16.67;;;4.97;;
4519;SDS011;2272;49.226;8.108;2024-02-21T10:47:30;11.10;;;5.40;;
4519;SDS011;2272;49.226;8.108;2024-02-21T10:52:44;12.53;;;4.60;;
4519;SDS011;2272;49.226;8.108;2024-02-21T10:55:31;15.73;;;4.60;;
4519;SDS011;2272;49.226;8.108;2024-02-21T10:58:30;20.97;;;5.07;;
4519;SDS011;2272;49.226;8.108;2024-02-21T11:00:59;12.60;;;4.83;;
4519;SDS011;2272;49.226;8.108;2024-02-21T11:03:26;15.97;;;6.03;;
4519;SDS011;2272;49.226;8.108;2024-02-21T11:05:59;12.50;;;4.70;;
4519;SDS011;2272;49.226;8.108;2024-02-21T11:08:30;8.20;;;4.63;;
4519;SDS011;2272;49.226;8.108;2024-02-21T11:10:58;12.10;;;5.57;;
4519;SDS011;2272;49.226;8.108;2024-02-21T11:13:34;10.67;;;4.90;;
4519;SDS011;2272;49.226;8.108;2024-02-21T11:16:09;7.90;;;5.03;;
4519;SDS011;2272;49.226;8.108;2024-02-21T11:18:39;13.13;;;5.80;;
4519;SDS011;2272;49.226;8.108;2024-02-21T11:21:06;12.23;;;5.67;;
4519;SDS011;2272;49.226;8.108;2024-02-21T11:23:34;10.47;;;5.00;;
4519;SDS011;2272;49.226;8.108;2024-02-21T11:26:04;17.23;;;4.90;;
4519;SDS011;2272;49.226;8.108;2024-02-21T11:28:33;20.30;;;5.80;;
4519;SDS011;2272;49.226;8.108;2024-02-21T11:31:08;11.43;;;5.40;;
4519;SDS011;2272;49.226;8.108;2024-02-21T11:33:39;12.17;;;6.40;;
4519;SDS011;2272;49.226;8.108;2024-02-21T11:36:07;14.20;;;6.67;;
4519;SDS011;2272;49.226;8.108;2024-02-21T11:38:39;9.77;;;6.03;;
4519;SDS011;2272;49.226;8.108;2024-02-21T11:41:07;17.33;;;6.40;;
4519;SDS011;2272;49.226;8.108;2024-02-21T11:43:39;24.30;;;8.90;;
4519;SDS011;2272;49.226;8.108;2024-02-21T11:46:06;7.33;;;5.37;;
4519;SDS011;2272;49.226;8.108;2024-02-21T11:48:35;13.70;;;5.20;;
4519;SDS011;2272;49.226;8.108;2024-02-21T11:51:04;18.43;;;6.73;;
4519;SDS011;2272;49.226;8.108;2024-02-21T11:53:31;15.10;;;6.20;;
4519;SDS011;2272;49.226;8.108;2024-02-21T11:55:58;13.93;;;6.23;;
4519;SDS011;2272;49.226;8.108;2024-02-21T11:58:25;23.07;;;8.80;;
4519;SDS011;2272;49.226;8.108;2024-02-21T12:00:53;35.93;;;12.20;;
4519;SDS011;2272;49.226;8.108;2024-02-21T12:03:20;15.00;;;8.33;;
4519;SDS011;2272;49.226;8.108;2024-02-21T12:05:47;12.97;;;8.00;;
4519;SDS011;2272;49.226;8.108;2024-02-21T12:08:14;14.23;;;6.37;;
4519;SDS011;2272;49.226;8.108;2024-02-21T12:11:31;22.27;;;9.10;;
4519;SDS011;2272;49.226;8.108;2024-02-21T12:13:58;11.63;;;5.90;;
4519;SDS011;2272;49.226;8.108;2024-02-21T12:16:28;16.67;;;5.77;;
4519;SDS011;2272;49.226;8.108;2024-02-21T12:19:09;12.40;;;4.30;;
4519;SDS011;2272;49.226;8.108;2024-02-21T12:21:37;11.87;;;4.90;;
4519;SDS011;2272;49.226;8.108;2024-02-21T12:24:12;7.33;;;4.30;;
4519;SDS011;2272;49.226;8.108;2024-02-21T12:26:45;15.07;;;4.87;;
4519;SDS011;2272;49.226;8.108;2024-02-21T12:29:12;8.47;;;4.23;;
4519;SDS011;2272;49.226;8.108;2024-02-21T12:31:41;12.57;;;4.57;;
4519;SDS011;2272;49.226;8.108;2024-02-21T12:34:34;11.77;;;5.03;;
4519;SDS011;2272;49.226;8.108;2024-02-21T12:37:01;13.30;;;4.83;;
4519;SDS011;2272;49.226;8.108;2024-02-21T12:39:29;7.00;;;4.50;;
4519;SDS011;2272;49.226;8.108;2024-02-21T12:41:56;10.83;;;5.23;;
4519;SDS011;2272;49.226;8.108;2024-02-21T12:44:23;15.00;;;4.90;;
4519;SDS011;2272;49.226;8.108;2024-02-21T12:46:52;14.17;;;6.00;;
4519;SDS011;2272;49.226;8.108;2024-02-21T12:49:19;12.93;;;5.63;;
4519;SDS011;2272;49.226;8.108;2024-02-21T12:51:46;8.40;;;4.80;;
4519;SDS011;2272;49.226;8.108;2024-02-21T12:54:13;26.47;;;5.03;;
4519;SDS011;2272;49.226;8.108;2024-02-21T12:56:39;14.07;;;5.73;;
4519;SDS011;2272;49.226;8.108;2024-02-21T12:59:06;6.43;;;4.20;;
4519;SDS011;2272;49.226;8.108;2024-02-21T13:01:34;11.40;;;4.00;;
4519;SDS011;2272;49.226;8.108;2024-02-21T13:04:02;14.40;;;4.00;;
4519;SDS011;2272;49.226;8.108;2024-02-21T13:06:28;10.03;;;4.93;;
4519;SDS011;2272;49.226;8.108;2024-02-21T13:08:55;6.60;;;3.60;;
4519;SDS011;2272;49.226;8.108;2024-02-21T13:11:22;8.43;;;4.67;;
4519;SDS011;2272;49.226;8.108;2024-02-21T13:13:51;16.83;;;5.70;;
4519;SDS011;2272;49.226;8.108;2024-02-21T13:16:19;6.83;;;3.73;;
4519;SDS011;2272;49.226;8.108;2024-02-21T13:18:50;18.13;;;4.97;;
4519;SDS011;2272;49.226;8.108;2024-02-21T13:21:18;13.00;;;5.20;;
4519;SDS011;2272;49.226;8.108;2024-02-21T13:23:45;5.93;;;3.80;;
4519;SDS011;2272;49.226;8.108;2024-02-21T13:26:12;6.67;;;4.53;;
4519;SDS011;2272;49.226;8.108;2024-02-21T13:28:55;6.83;;;4.17;;
4519;SDS011;2272;49.226;8.108;2024-02-21T13:31:23;14.13;;;3.70;;
4519;SDS011;2272;49.226;8.108;2024-02-21T13:33:51;16.10;;;4.07;;
4519;SDS011;2272;49.226;8.108;2024-02-21T13:36:19;8.60;;;3.57;;
4519;SDS011;2272;49.226;8.108;2024-02-21T13:38:46;7.97;;;3.70;;
4519;SDS011;2272;49.226;8.108;2024-02-21T13:41:13;14.67;;;4.57;;
4519;SDS011;2272;49.226;8.108;2024-02-21T13:43:39;14.50;;;4.30;;
4519;SDS011;2272;49.226;8.108;2024-02-21T13:46:06;11.90;;;4.53;;
4519;SDS011;2272;49.226;8.108;2024-02-21T13:48:34;4.23;;;3.07;;
4519;SDS011;2272;49.226;8.108;2024-02-21T13:51:01;12.00;;;4.23;;
4519;SDS011;2272;49.226;8.108;2024-02-21T13:53:39;8.47;;;3.80;;
4519;SDS011;2272;49.226;8.108;2024-02-21T13:56:13;20.73;;;4.53;;
4519;SDS011;2272;49.226;8.108;2024-02-21T13:58:40;9.17;;;3.33;;
4519;SDS011;2272;49.226;8.108;2024-02-21T14:01:06;9.10;;;3.77;;
4519;SDS011;2272;49.226;8.108;2024-02-21T14:03:34;10.27;;;3.57;;
4519;SDS011;2272;49.226;8.108;2024-02-21T14:06:01;8.00;;;3.87;;
4519;SDS011;2272;49.226;8.108;2024-02-21T14:08:31;8.30;;;4.43;;
4519;SDS011;2272;49.226;8.108;2024-02-21T14:11:00;14.97;;;4.40;;
4519;SDS011;2272;49.226;8.108;2024-02-21T14:13:30;13.10;;;4.80;;
4519;SDS011;2272;49.226;8.108;2024-02-21T14:15:57;5.27;;;3.40;;
4519;SDS011;2272;49.226;8.108;2024-02-21T14:18:23;7.13;;;4.23;;
4519;SDS011;2272;49.226;8.108;2024-02-21T14:20:50;10.93;;;4.07;;
4519;SDS011;2272;49.226;8.108;2024-02-21T14:23:17;7.83;;;4.03;;
4519;SDS011;2272;49.226;8.108;2024-02-21T14:25:45;9.97;;;4.60;;
4519;SDS011;2272;49.226;8.108;2024-02-21T14:28:12;11.50;;;5.20;;
4519;SDS011;2272;49.226;8.108;2024-02-21T14:30:39;17.70;;;4.83;;
4519;SDS011;2272;49.226;8.108;2024-02-21T14:33:05;18.03;;;4.70;;
4519;SDS011;2272;49.226;8.108;2024-02-21T14:35:34;10.87;;;4.80;;
4519;SDS011;2272;49.226;8.108;2024-02-21T14:38:00;16.83;;;4.90;;
4519;SDS011;2272;49.226;8.108;2024-02-21T14:40:27;6.47;;;4.10;;
4519;SDS011;2272;49.226;8.108;2024-02-21T14:42:56;9.90;;;4.63;;
4519;SDS011;2272;49.226;8.108;2024-02-21T14:45:23;9.53;;;5.10;;
4519;SDS011;2272;49.226;8.108;2024-02-21T14:47:59;14.93;;;5.57;;
4519;SDS011;2272;49.226;8.108;2024-02-21T14:50:26;11.67;;;5.47;;
4519;SDS011;2272;49.226;8.108;2024-02-21T14:52:53;11.43;;;3.57;;
4519;SDS011;2272;49.226;8.108;2024-02-21T14:55:19;10.93;;;5.20;;
4519;SDS011;2272;49.226;8.108;2024-02-21T14:57:46;9.23;;;5.13;;
4519;SDS011;2272;49.226;8.108;2024-02-21T15:00:15;10.07;;;4.97;;
4519;SDS011;2272;49.226;8.108;2024-02-21T15:02:42;15.43;;;5.80;;
4519;SDS011;2272;49.226;8.108;2024-02-21T15:05:09;9.80;;;4.53;;
4519;SDS011;2272;49.226;8.108;2024-02-21T15:07:37;14.33;;;6.87;;
4519;SDS011;2272;49.226;8.108;2024-02-21T15:10:04;10.83;;;6.30;;
4519;SDS011;2272;49.226;8.108;2024-02-21T15:12:32;13.17;;;5.17;;
4519;SDS011;2272;49.226;8.108;2024-02-21T15:14:59;19.03;;;4.80;;
4519;SDS011;2272;49.226;8.108;2024-02-21T15:17:27;11.67;;;5.23;;
4519;SDS011;2272;49.226;8.108;2024-02-21T15:19:54;11.23;;;5.77;;
4519;SDS011;2272;49.226;8.108;2024-02-21T15:22:20;11.40;;;6.80;;